sensor_id;sensor_type;location;lat;lon;timestamp;P1;durP1;ratioP1;P2;durP2;ratioP2
63945;SDS011;50122;56.330;43.838;2023-04-03T00:00:47;67.63;;;31.55;;
63945;SDS011;50122;56.330;43.838;2023-04-03T00:03:16;52.35;;;29.17;;
63945;SDS011;50122;56.330;43.838;2023-04-03T00:05:45;63.00;;;32.58;;
63945;SDS011;50122;56.330;43.838;2023-04-03T00:08:12;58.75;;;29.00;;
63945;SDS011;50122;56.330;43.838;2023-04-03T00:10:39;54.85;;;28.52;;
63945;SDS011;50122;56.330;43.838;2023-04-03T00:13:06;52.47;;;29.73;;
63945;SDS011;50122;56.330;43.838;2023-04-03T00:15:34;53.08;;;28.38;;
63945;SDS011;50122;56.330;43.838;2023-04-03T00:18:02;47.17;;;26.92;;
63945;SDS011;50122;56.330;43.838;2023-04-03T00:20:31;47.80;;;24.85;;
63945;SDS011;50122;56.330;43.838;2023-04-03T00:22:58;50.20;;;25.70;;
63945;SDS011;50122;56.330;43.838;2023-04-03T00:25:26;42.70;;;24.60;;
63945;SDS011;50122;56.330;43.838;2023-04-03T00:27:53;43.08;;;23.45;;
63945;SDS011;50122;56.330;43.838;2023-04-03T00:30:20;44.38;;;23.40;;
63945;SDS011;50122;56.330;43.838;2023-04-03T00:32:50;30.00;;;19.90;;
63945;SDS011;50122;56.330;43.838;2023-04-03T00:35:19;34.85;;;19.67;;
63945;SDS011;50122;56.330;43.838;2023-04-03T00:37:47;27.48;;;17.83;;
63945;SDS011;50122;56.330;43.838;2023-04-03T00:40:14;26.50;;;17.92;;
63945;SDS011;50122;56.330;43.838;2023-04-03T00:42:42;24.92;;;17.15;;
63945;SDS011;50122;56.330;43.838;2023-04-03T00:47:44;23.60;;;16.30;;
63945;SDS011;50122;56.330;43.838;2023-04-03T00:50:11;22.15;;;14.75;;
63945;SDS011;50122;56.330;43.838;2023-04-03T00:52:38;22.92;;;14.93;;
63945;SDS011;50122;56.330;43.838;2023-04-03T00:55:06;20.45;;;14.30;;
63945;SDS011;50122;56.330;43.838;2023-04-03T00:57:35;20.08;;;14.05;;
63945;SDS011;50122;56.330;43.838;2023-04-03T01:00:05;21.38;;;13.63;;
63945;SDS011;50122;56.330;43.838;2023-04-03T01:02:37;20.42;;;13.75;;
63945;SDS011;50122;56.330;43.838;2023-04-03T01:05:07;20.77;;;14.13;;
63945;SDS011;50122;56.330;43.838;2023-04-03T01:07:34;20.27;;;14.20;;
63945;SDS011;50122;56.330;43.838;2023-04-03T01:10:06;19.98;;;14.07;;
63945;SDS011;50122;56.330;43.838;2023-04-03T01:12:36;21.27;;;14.32;;
63945;SDS011;50122;56.330;43.838;2023-04-03T01:15:07;18.13;;;13.50;;
63945;SDS011;50122;56.330;43.838;2023-04-03T01:25:45;19.27;;;13.35;;
63945;SDS011;50122;56.330;43.838;2023-04-03T01:34:15;21.50;;;14.02;;
63945;SDS011;50122;56.330;43.838;2023-04-03T01:36:41;20.85;;;13.90;;
63945;SDS011;50122;56.330;43.838;2023-04-03T01:39:09;21.88;;;14.10;;
63945;SDS011;50122;56.330;43.838;2023-04-03T01:41:36;23.13;;;14.32;;
63945;SDS011;50122;56.330;43.838;2023-04-03T01:44:02;18.92;;;13.80;;
63945;SDS011;50122;56.330;43.838;2023-04-03T01:46:30;20.85;;;14.65;;
63945;SDS011;50122;56.330;43.838;2023-04-03T01:48:56;19.67;;;14.30;;
63945;SDS011;50122;56.330;43.838;2023-04-03T01:51:24;22.25;;;15.45;;
63945;SDS011;50122;56.330;43.838;2023-04-03T01:53:50;23.42;;;16.17;;
63945;SDS011;50122;56.330;43.838;2023-04-03T01:56:17;21.98;;;15.73;;
63945;SDS011;50122;56.330;43.838;2023-04-03T01:58:44;22.73;;;15.95;;
63945;SDS011;50122;56.330;43.838;2023-04-03T02:01:11;23.30;;;15.32;;
63945;SDS011;50122;56.330;43.838;2023-04-03T02:03:37;23.98;;;15.85;;
63945;SDS011;50122;56.330;43.838;2023-04-03T02:06:05;21.45;;;15.80;;
63945;SDS011;50122;56.330;43.838;2023-04-03T02:08:32;21.83;;;15.15;;
63945;SDS011;50122;56.330;43.838;2023-04-03T02:10:58;23.10;;;15.13;;
63945;SDS011;50122;56.330;43.838;2023-04-03T02:13:25;23.40;;;15.55;;
63945;SDS011;50122;56.330;43.838;2023-04-03T02:15:52;23.45;;;15.23;;
63945;SDS011;50122;56.330;43.838;2023-04-03T02:18:19;23.90;;;16.13;;
63945;SDS011;50122;56.330;43.838;2023-04-03T02:20:46;22.63;;;16.23;;
63945;SDS011;50122;56.330;43.838;2023-04-03T02:23:15;22.05;;;15.52;;
63945;SDS011;50122;56.330;43.838;2023-04-03T02:25:41;22.38;;;15.57;;
63945;SDS011;50122;56.330;43.838;2023-04-03T02:28:10;22.45;;;15.15;;
63945;SDS011;50122;56.330;43.838;2023-04-03T02:30:37;22.90;;;16.23;;
63945;SDS011;50122;56.330;43.838;2023-04-03T02:33:04;22.00;;;15.43;;
63945;SDS011;50122;56.330;43.838;2023-04-03T02:35:31;21.50;;;15.52;;
63945;SDS011;50122;56.330;43.838;2023-04-03T02:37:58;24.40;;;16.20;;
63945;SDS011;50122;56.330;43.838;2023-04-03T02:40:24;21.35;;;14.95;;
63945;SDS011;50122;56.330;43.838;2023-04-03T02:42:51;23.50;;;16.15;;
63945;SDS011;50122;56.330;43.838;2023-04-03T02:45:18;23.52;;;15.13;;
63945;SDS011;50122;56.330;43.838;2023-04-03T02:47:44;22.48;;;15.80;;
63945;SDS011;50122;56.330;43.838;2023-04-03T02:50:12;30.33;;;17.25;;
63945;SDS011;50122;56.330;43.838;2023-04-03T02:52:39;27.25;;;18.30;;
63945;SDS011;50122;56.330;43.838;2023-04-03T02:55:06;28.65;;;18.77;;
63945;SDS011;50122;56.330;43.838;2023-04-03T02:57:33;32.55;;;18.67;;
63945;SDS011;50122;56.330;43.838;2023-04-03T02:59:59;26.77;;;18.77;;
63945;SDS011;50122;56.330;43.838;2023-04-03T03:02:26;25.95;;;17.23;;
63945;SDS011;50122;56.330;43.838;2023-04-03T03:04:54;26.08;;;18.02;;
63945;SDS011;50122;56.330;43.838;2023-04-03T03:07:21;27.52;;;18.52;;
63945;SDS011;50122;56.330;43.838;2023-04-03T03:09:47;24.02;;;16.13;;
63945;SDS011;50122;56.330;43.838;2023-04-03T03:12:14;24.58;;;16.40;;
63945;SDS011;50122;56.330;43.838;2023-04-03T03:14:41;22.63;;;16.00;;
63945;SDS011;50122;56.330;43.838;2023-04-03T03:17:09;26.45;;;17.63;;
63945;SDS011;50122;56.330;43.838;2023-04-03T03:19:35;27.60;;;17.17;;
63945;SDS011;50122;56.330;43.838;2023-04-03T03:22:02;21.85;;;16.30;;
63945;SDS011;50122;56.330;43.838;2023-04-03T03:24:29;23.98;;;16.00;;
63945;SDS011;50122;56.330;43.838;2023-04-03T03:26:56;25.48;;;16.83;;
63945;SDS011;50122;56.330;43.838;2023-04-03T03:29:22;26.38;;;17.30;;
63945;SDS011;50122;56.330;43.838;2023-04-03T03:31:49;26.00;;;18.48;;
63945;SDS011;50122;56.330;43.838;2023-04-03T03:34:16;24.60;;;17.85;;
63945;SDS011;50122;56.330;43.838;2023-04-03T03:36:43;26.80;;;19.40;;
63945;SDS011;50122;56.330;43.838;2023-04-03T03:39:10;28.08;;;17.90;;
63945;SDS011;50122;56.330;43.838;2023-04-03T03:41:36;23.90;;;16.90;;
63945;SDS011;50122;56.330;43.838;2023-04-03T03:44:03;22.80;;;15.25;;
63945;SDS011;50122;56.330;43.838;2023-04-03T03:46:30;22.23;;;13.80;;
63945;SDS011;50122;56.330;43.838;2023-04-03T03:48:56;19.35;;;13.63;;
63945;SDS011;50122;56.330;43.838;2023-04-03T03:51:23;17.88;;;12.85;;
63945;SDS011;50122;56.330;43.838;2023-04-03T03:53:50;18.55;;;12.40;;
63945;SDS011;50122;56.330;43.838;2023-04-03T03:56:17;18.60;;;11.63;;
63945;SDS011;50122;56.330;43.838;2023-04-03T03:58:43;15.82;;;11.02;;
63945;SDS011;50122;56.330;43.838;2023-04-03T04:01:10;17.83;;;11.52;;
63945;SDS011;50122;56.330;43.838;2023-04-03T04:03:37;17.65;;;11.13;;
63945;SDS011;50122;56.330;43.838;2023-04-03T04:06:04;18.48;;;10.63;;
63945;SDS011;50122;56.330;43.838;2023-04-03T04:08:31;15.65;;;10.18;;
63945;SDS011;50122;56.330;43.838;2023-04-03T04:10:59;14.43;;;10.10;;
63945;SDS011;50122;56.330;43.838;2023-04-03T04:13:26;17.08;;;10.43;;
63945;SDS011;50122;56.330;43.838;2023-04-03T04:15:52;17.98;;;10.68;;
63945;SDS011;50122;56.330;43.838;2023-04-03T04:18:19;16.17;;;10.75;;
63945;SDS011;50122;56.330;43.838;2023-04-03T04:20:47;16.10;;;10.55;;
63945;SDS011;50122;56.330;43.838;2023-04-03T04:23:14;17.10;;;10.73;;
63945;SDS011;50122;56.330;43.838;2023-04-03T04:25:44;16.75;;;11.13;;
63945;SDS011;50122;56.330;43.838;2023-04-03T04:28:15;16.48;;;10.52;;
63945;SDS011;50122;56.330;43.838;2023-04-03T04:30:43;15.70;;;10.40;;
63945;SDS011;50122;56.330;43.838;2023-04-03T04:33:10;15.13;;;11.25;;
63945;SDS011;50122;56.330;43.838;2023-04-03T04:35:36;18.17;;;11.20;;
63945;SDS011;50122;56.330;43.838;2023-04-03T04:38:04;16.30;;;11.23;;
63945;SDS011;50122;56.330;43.838;2023-04-03T04:40:30;16.33;;;10.75;;
63945;SDS011;50122;56.330;43.838;2023-04-03T04:42:57;18.83;;;10.88;;
63945;SDS011;50122;56.330;43.838;2023-04-03T04:45:24;19.88;;;10.52;;
63945;SDS011;50122;56.330;43.838;2023-04-03T04:47:50;20.17;;;11.15;;
63945;SDS011;50122;56.330;43.838;2023-04-03T04:50:18;14.82;;;10.85;;
63945;SDS011;50122;56.330;43.838;2023-04-03T04:52:46;14.40;;;10.63;;
63945;SDS011;50122;56.330;43.838;2023-04-03T04:55:12;19.77;;;10.25;;
63945;SDS011;50122;56.330;43.838;2023-04-03T04:57:39;16.35;;;11.27;;
63945;SDS011;50122;56.330;43.838;2023-04-03T05:00:09;15.45;;;9.45;;
63945;SDS011;50122;56.330;43.838;2023-04-03T05:02:36;14.00;;;9.45;;
63945;SDS011;50122;56.330;43.838;2023-04-03T05:05:03;16.98;;;10.00;;
63945;SDS011;50122;56.330;43.838;2023-04-03T05:07:30;15.50;;;10.57;;
63945;SDS011;50122;56.330;43.838;2023-04-03T05:09:57;15.88;;;10.57;;
63945;SDS011;50122;56.330;43.838;2023-04-03T05:12:24;16.08;;;10.30;;
63945;SDS011;50122;56.330;43.838;2023-04-03T05:14:54;21.65;;;11.13;;
63945;SDS011;50122;56.330;43.838;2023-04-03T05:17:21;15.60;;;10.75;;
63945;SDS011;50122;56.330;43.838;2023-04-03T05:19:49;16.48;;;10.15;;
63945;SDS011;50122;56.330;43.838;2023-04-03T05:22:16;17.38;;;10.65;;
63945;SDS011;50122;56.330;43.838;2023-04-03T05:24:43;18.27;;;10.55;;
63945;SDS011;50122;56.330;43.838;2023-04-03T05:27:09;15.50;;;9.48;;
63945;SDS011;50122;56.330;43.838;2023-04-03T05:29:38;18.00;;;11.23;;
63945;SDS011;50122;56.330;43.838;2023-04-03T05:32:05;15.85;;;10.52;;
63945;SDS011;50122;56.330;43.838;2023-04-03T05:34:31;15.60;;;9.82;;
63945;SDS011;50122;56.330;43.838;2023-04-03T16:32:26;28.00;;;6.10;;
63945;SDS011;50122;56.330;43.838;2023-04-03T16:34:56;25.40;;;6.60;;
63945;SDS011;50122;56.330;43.838;2023-04-03T16:37:24;23.05;;;6.28;;
63945;SDS011;50122;56.330;43.838;2023-04-03T16:39:53;47.78;;;7.07;;
63945;SDS011;50122;56.330;43.838;2023-04-03T16:42:24;23.23;;;6.05;;
63945;SDS011;50122;56.330;43.838;2023-04-03T16:44:51;21.33;;;6.35;;
63945;SDS011;50122;56.330;43.838;2023-04-03T16:47:18;24.95;;;6.63;;
63945;SDS011;50122;56.330;43.838;2023-04-03T16:49:46;16.42;;;6.57;;
63945;SDS011;50122;56.330;43.838;2023-04-03T16:52:13;29.20;;;7.00;;
63945;SDS011;50122;56.330;43.838;2023-04-03T16:54:40;24.60;;;6.40;;
63945;SDS011;50122;56.330;43.838;2023-04-03T16:57:07;33.03;;;6.45;;
63945;SDS011;50122;56.330;43.838;2023-04-03T16:59:33;34.42;;;6.28;;
63945;SDS011;50122;56.330;43.838;2023-04-03T17:02:00;23.73;;;6.25;;
63945;SDS011;50122;56.330;43.838;2023-04-03T17:04:27;22.20;;;5.65;;
63945;SDS011;50122;56.330;43.838;2023-04-03T17:06:54;17.90;;;5.97;;
63945;SDS011;50122;56.330;43.838;2023-04-03T17:09:21;14.40;;;5.57;;
63945;SDS011;50122;56.330;43.838;2023-04-03T17:11:51;16.77;;;5.05;;
63945;SDS011;50122;56.330;43.838;2023-04-03T17:14:18;17.85;;;5.38;;
63945;SDS011;50122;56.330;43.838;2023-04-03T17:16:45;13.60;;;5.20;;
63945;SDS011;50122;56.330;43.838;2023-04-03T17:19:12;14.52;;;4.57;;
63945;SDS011;50122;56.330;43.838;2023-04-03T17:21:39;17.05;;;4.53;;
63945;SDS011;50122;56.330;43.838;2023-04-03T17:24:06;13.43;;;5.43;;
63945;SDS011;50122;56.330;43.838;2023-04-03T17:26:35;10.75;;;4.47;;
63945;SDS011;50122;56.330;43.838;2023-04-03T17:29:03;10.52;;;4.40;;
63945;SDS011;50122;56.330;43.838;2023-04-03T17:31:30;12.15;;;4.68;;
63945;SDS011;50122;56.330;43.838;2023-04-03T17:34:03;10.90;;;4.38;;
63945;SDS011;50122;56.330;43.838;2023-04-03T17:36:30;14.10;;;4.40;;
63945;SDS011;50122;56.330;43.838;2023-04-03T17:38:57;13.93;;;4.35;;
63945;SDS011;50122;56.330;43.838;2023-04-03T17:41:24;10.38;;;4.07;;
63945;SDS011;50122;56.330;43.838;2023-04-03T17:43:52;13.25;;;4.15;;
63945;SDS011;50122;56.330;43.838;2023-04-03T17:46:22;8.07;;;3.63;;
63945;SDS011;50122;56.330;43.838;2023-04-03T17:49:00;8.43;;;4.30;;
63945;SDS011;50122;56.330;43.838;2023-04-03T17:51:47;12.90;;;3.90;;
63945;SDS011;50122;56.330;43.838;2023-04-03T17:54:14;7.15;;;3.90;;
63945;SDS011;50122;56.330;43.838;2023-04-03T17:56:42;13.82;;;4.30;;
63945;SDS011;50122;56.330;43.838;2023-04-03T17:59:14;9.27;;;4.13;;
63945;SDS011;50122;56.330;43.838;2023-04-03T18:01:42;8.90;;;4.20;;
63945;SDS011;50122;56.330;43.838;2023-04-03T18:04:10;10.32;;;4.10;;
63945;SDS011;50122;56.330;43.838;2023-04-03T18:06:41;12.52;;;4.13;;
63945;SDS011;50122;56.330;43.838;2023-04-03T18:09:18;19.85;;;4.18;;
63945;SDS011;50122;56.330;43.838;2023-04-03T18:11:46;10.98;;;4.50;;
63945;SDS011;50122;56.330;43.838;2023-04-03T18:14:14;12.30;;;4.85;;
63945;SDS011;50122;56.330;43.838;2023-04-03T18:16:44;9.52;;;4.03;;
63945;SDS011;50122;56.330;43.838;2023-04-03T18:19:11;14.10;;;4.90;;
63945;SDS011;50122;56.330;43.838;2023-04-03T18:21:49;22.35;;;4.40;;
63945;SDS011;50122;56.330;43.838;2023-04-03T18:24:18;12.00;;;3.97;;
63945;SDS011;50122;56.330;43.838;2023-04-03T18:26:47;12.25;;;4.18;;
63945;SDS011;50122;56.330;43.838;2023-04-03T18:29:19;10.15;;;4.00;;
63945;SDS011;50122;56.330;43.838;2023-04-03T18:31:47;20.02;;;4.45;;
63945;SDS011;50122;56.330;43.838;2023-04-03T18:34:17;8.77;;;4.00;;
63945;SDS011;50122;56.330;43.838;2023-04-03T18:36:44;17.45;;;4.32;;
63945;SDS011;50122;56.330;43.838;2023-04-03T18:39:12;32.90;;;5.60;;
63945;SDS011;50122;56.330;43.838;2023-04-03T18:41:41;15.43;;;4.47;;
63945;SDS011;50122;56.330;43.838;2023-04-03T18:44:10;13.23;;;4.40;;
63945;SDS011;50122;56.330;43.838;2023-04-03T18:46:39;12.13;;;4.50;;
63945;SDS011;50122;56.330;43.838;2023-04-03T18:49:07;10.82;;;3.95;;
63945;SDS011;50122;56.330;43.838;2023-04-03T18:51:35;15.07;;;4.47;;
63945;SDS011;50122;56.330;43.838;2023-04-03T18:54:05;18.85;;;4.20;;
63945;SDS011;50122;56.330;43.838;2023-04-03T18:56:35;10.98;;;4.22;;
63945;SDS011;50122;56.330;43.838;2023-04-03T18:59:02;12.95;;;4.35;;
63945;SDS011;50122;56.330;43.838;2023-04-03T19:01:29;11.45;;;4.20;;
63945;SDS011;50122;56.330;43.838;2023-04-03T19:03:56;12.90;;;4.50;;
63945;SDS011;50122;56.330;43.838;2023-04-03T19:06:23;10.27;;;4.45;;
63945;SDS011;50122;56.330;43.838;2023-04-03T19:08:49;7.70;;;4.40;;
63945;SDS011;50122;56.330;43.838;2023-04-03T19:11:16;12.95;;;5.15;;
63945;SDS011;50122;56.330;43.838;2023-04-03T19:13:43;13.13;;;4.63;;
63945;SDS011;50122;56.330;43.838;2023-04-03T19:16:32;10.02;;;4.80;;
63945;SDS011;50122;56.330;43.838;2023-04-03T19:19:00;10.48;;;4.45;;
63945;SDS011;50122;56.330;43.838;2023-04-03T19:21:27;13.63;;;4.57;;
63945;SDS011;50122;56.330;43.838;2023-04-03T19:23:54;6.60;;;3.72;;
63945;SDS011;50122;56.330;43.838;2023-04-03T19:26:24;9.75;;;4.38;;
63945;SDS011;50122;56.330;43.838;2023-04-03T19:28:53;10.63;;;4.10;;
63945;SDS011;50122;56.330;43.838;2023-04-03T19:31:20;8.00;;;3.78;;
63945;SDS011;50122;56.330;43.838;2023-04-03T19:33:49;9.43;;;4.00;;
63945;SDS011;50122;56.330;43.838;2023-04-03T19:36:16;10.88;;;4.28;;
63945;SDS011;50122;56.330;43.838;2023-04-03T19:38:44;14.18;;;4.75;;
63945;SDS011;50122;56.330;43.838;2023-04-03T19:41:12;8.00;;;4.28;;
63945;SDS011;50122;56.330;43.838;2023-04-03T19:43:42;8.95;;;4.57;;
63945;SDS011;50122;56.330;43.838;2023-04-03T19:46:09;8.90;;;4.20;;
63945;SDS011;50122;56.330;43.838;2023-04-03T19:48:37;12.05;;;4.30;;
63945;SDS011;50122;56.330;43.838;2023-04-03T19:51:03;10.68;;;3.90;;
63945;SDS011;50122;56.330;43.838;2023-04-03T19:53:31;11.70;;;4.18;;
63945;SDS011;50122;56.330;43.838;2023-04-03T19:55:59;20.15;;;4.68;;
63945;SDS011;50122;56.330;43.838;2023-04-03T19:58:26;7.45;;;3.60;;
63945;SDS011;50122;56.330;43.838;2023-04-03T20:00:55;7.85;;;3.30;;
63945;SDS011;50122;56.330;43.838;2023-04-03T20:03:23;10.05;;;3.95;;
63945;SDS011;50122;56.330;43.838;2023-04-03T20:05:51;7.85;;;3.67;;
63945;SDS011;50122;56.330;43.838;2023-04-03T20:08:18;7.93;;;3.53;;
63945;SDS011;50122;56.330;43.838;2023-04-03T20:10:46;8.48;;;3.70;;
63945;SDS011;50122;56.330;43.838;2023-04-03T20:13:14;10.63;;;3.60;;
63945;SDS011;50122;56.330;43.838;2023-04-03T20:15:41;12.07;;;3.60;;
63945;SDS011;50122;56.330;43.838;2023-04-03T20:18:10;9.43;;;3.50;;
63945;SDS011;50122;56.330;43.838;2023-04-03T20:20:57;9.55;;;3.42;;
63945;SDS011;50122;56.330;43.838;2023-04-03T20:23:28;17.27;;;3.90;;
63945;SDS011;50122;56.330;43.838;2023-04-03T20:25:56;8.85;;;3.70;;
63945;SDS011;50122;56.330;43.838;2023-04-03T20:28:36;15.25;;;4.05;;
63945;SDS011;50122;56.330;43.838;2023-04-03T20:31:05;7.47;;;3.60;;
63945;SDS011;50122;56.330;43.838;2023-04-03T20:33:34;10.25;;;3.55;;
63945;SDS011;50122;56.330;43.838;2023-04-03T20:36:02;8.15;;;3.70;;
63945;SDS011;50122;56.330;43.838;2023-04-03T20:38:29;8.52;;;3.60;;
63945;SDS011;50122;56.330;43.838;2023-04-03T20:40:56;10.50;;;3.78;;
63945;SDS011;50122;56.330;43.838;2023-04-03T20:43:23;12.23;;;3.55;;
63945;SDS011;50122;56.330;43.838;2023-04-03T20:45:50;11.75;;;3.75;;
63945;SDS011;50122;56.330;43.838;2023-04-03T20:48:17;9.48;;;3.80;;
63945;SDS011;50122;56.330;43.838;2023-04-03T20:50:44;12.02;;;3.50;;
63945;SDS011;50122;56.330;43.838;2023-04-03T20:53:12;8.75;;;3.67;;
63945;SDS011;50122;56.330;43.838;2023-04-03T20:55:40;10.07;;;3.75;;
63945;SDS011;50122;56.330;43.838;2023-04-03T20:58:07;11.27;;;3.90;;
63945;SDS011;50122;56.330;43.838;2023-04-03T21:00:34;7.80;;;3.78;;
63945;SDS011;50122;56.330;43.838;2023-04-03T21:03:03;9.48;;;3.83;;
63945;SDS011;50122;56.330;43.838;2023-04-03T21:05:31;9.10;;;3.85;;
63945;SDS011;50122;56.330;43.838;2023-04-03T21:19:42;9.57;;;3.47;;
63945;SDS011;50122;56.330;43.838;2023-04-03T21:22:12;10.55;;;4.18;;
63945;SDS011;50122;56.330;43.838;2023-04-03T21:24:39;12.73;;;4.18;;
63945;SDS011;50122;56.330;43.838;2023-04-03T21:27:06;12.45;;;4.03;;
63945;SDS011;50122;56.330;43.838;2023-04-03T21:29:33;11.82;;;4.25;;
63945;SDS011;50122;56.330;43.838;2023-04-03T21:31:59;12.10;;;4.85;;
63945;SDS011;50122;56.330;43.838;2023-04-03T21:34:28;15.13;;;4.93;;
63945;SDS011;50122;56.330;43.838;2023-04-03T21:36:56;13.50;;;5.38;;
63945;SDS011;50122;56.330;43.838;2023-04-03T21:39:26;9.25;;;4.45;;
63945;SDS011;50122;56.330;43.838;2023-04-03T21:41:53;11.15;;;4.80;;
63945;SDS011;50122;56.330;43.838;2023-04-03T21:44:20;12.50;;;4.45;;
63945;SDS011;50122;56.330;43.838;2023-04-03T21:46:48;12.85;;;4.25;;
63945;SDS011;50122;56.330;43.838;2023-04-03T21:49:20;8.35;;;3.88;;
63945;SDS011;50122;56.330;43.838;2023-04-03T21:51:47;7.80;;;3.78;;
63945;SDS011;50122;56.330;43.838;2023-04-03T21:54:17;12.77;;;3.90;;
63945;SDS011;50122;56.330;43.838;2023-04-03T21:56:45;9.50;;;3.95;;
63945;SDS011;50122;56.330;43.838;2023-04-03T21:59:17;11.20;;;4.00;;
63945;SDS011;50122;56.330;43.838;2023-04-03T22:01:44;9.30;;;3.97;;
63945;SDS011;50122;56.330;43.838;2023-04-03T22:04:12;10.48;;;3.70;;
63945;SDS011;50122;56.330;43.838;2023-04-03T22:06:38;12.90;;;3.60;;
63945;SDS011;50122;56.330;43.838;2023-04-03T22:09:05;10.15;;;3.80;;
63945;SDS011;50122;56.330;43.838;2023-04-03T22:11:32;11.38;;;3.40;;
63945;SDS011;50122;56.330;43.838;2023-04-03T22:13:58;9.82;;;4.03;;
63945;SDS011;50122;56.330;43.838;2023-04-03T22:16:27;14.45;;;3.67;;
63945;SDS011;50122;56.330;43.838;2023-04-03T22:18:55;10.88;;;4.22;;
63945;SDS011;50122;56.330;43.838;2023-04-03T22:21:24;7.80;;;3.72;;
63945;SDS011;50122;56.330;43.838;2023-04-03T22:23:51;10.23;;;3.78;;
63945;SDS011;50122;56.330;43.838;2023-04-03T22:26:19;11.77;;;3.25;;
63945;SDS011;50122;56.330;43.838;2023-04-03T22:28:47;11.10;;;4.00;;
63945;SDS011;50122;56.330;43.838;2023-04-03T22:31:14;13.35;;;3.50;;
63945;SDS011;50122;56.330;43.838;2023-04-03T22:33:43;12.32;;;3.50;;
63945;SDS011;50122;56.330;43.838;2023-04-03T22:36:11;9.82;;;3.20;;
63945;SDS011;50122;56.330;43.838;2023-04-03T22:38:39;8.23;;;3.17;;
63945;SDS011;50122;56.330;43.838;2023-04-03T22:41:10;9.07;;;4.07;;
63945;SDS011;50122;56.330;43.838;2023-04-03T22:43:37;12.82;;;4.45;;
63945;SDS011;50122;56.330;43.838;2023-04-03T22:46:05;8.23;;;3.85;;
63945;SDS011;50122;56.330;43.838;2023-04-03T22:48:34;8.60;;;3.20;;
63945;SDS011;50122;56.330;43.838;2023-04-03T22:51:05;9.13;;;4.43;;
63945;SDS011;50122;56.330;43.838;2023-04-03T22:53:33;12.82;;;3.58;;
63945;SDS011;50122;56.330;43.838;2023-04-03T22:56:00;10.80;;;3.67;;
63945;SDS011;50122;56.330;43.838;2023-04-03T22:58:28;8.82;;;3.78;;
63945;SDS011;50122;56.330;43.838;2023-04-03T23:01:02;12.25;;;3.40;;
63945;SDS011;50122;56.330;43.838;2023-04-03T23:03:30;8.65;;;3.42;;
63945;SDS011;50122;56.330;43.838;2023-04-03T23:05:56;8.88;;;3.22;;
63945;SDS011;50122;56.330;43.838;2023-04-03T23:08:23;7.55;;;3.38;;
63945;SDS011;50122;56.330;43.838;2023-04-03T23:10:52;6.38;;;2.80;;
63945;SDS011;50122;56.330;43.838;2023-04-03T23:13:20;7.25;;;3.60;;
63945;SDS011;50122;56.330;43.838;2023-04-03T23:15:53;9.40;;;2.80;;
63945;SDS011;50122;56.330;43.838;2023-04-03T23:18:26;5.47;;;3.15;;
63945;SDS011;50122;56.330;43.838;2023-04-03T23:20:58;12.60;;;3.25;;
63945;SDS011;50122;56.330;43.838;2023-04-03T23:23:27;11.00;;;3.35;;
63945;SDS011;50122;56.330;43.838;2023-04-03T23:25:57;10.10;;;3.80;;
63945;SDS011;50122;56.330;43.838;2023-04-03T23:28:25;16.05;;;5.90;;
63945;SDS011;50122;56.330;43.838;2023-04-03T23:30:59;24.10;;;8.40;;
63945;SDS011;50122;56.330;43.838;2023-04-03T23:33:28;28.23;;;9.68;;
63945;SDS011;50122;56.330;43.838;2023-04-03T23:35:57;24.98;;;8.93;;
63945;SDS011;50122;56.330;43.838;2023-04-03T23:38:25;22.92;;;8.18;;
63945;SDS011;50122;56.330;43.838;2023-04-03T23:40:52;20.75;;;7.38;;
63945;SDS011;50122;56.330;43.838;2023-04-03T23:43:20;21.65;;;7.63;;
63945;SDS011;50122;56.330;43.838;2023-04-03T23:45:46;17.33;;;6.22;;
63945;SDS011;50122;56.330;43.838;2023-04-03T23:48:13;15.80;;;6.38;;
63945;SDS011;50122;56.330;43.838;2023-04-03T23:50:40;11.95;;;5.22;;
63945;SDS011;50122;56.330;43.838;2023-04-03T23:53:07;11.20;;;4.80;;
63945;SDS011;50122;56.330;43.838;2023-04-03T23:55:34;12.32;;;4.40;;
63945;SDS011;50122;56.330;43.838;2023-04-03T23:58:02;11.90;;;3.85;;
